KOPL/OPL METAR and TAF weather

Enter ICAO airport designator
Station Type Date Time Source
KOPL METAR 2019/07/17 12:35 UTC NOAA

KOPL 171235Z AUTO 00000KT 2SM BR OVC002 25/25 A3010 RMK AO2 T02470247


Station Type Date Time Source
KOPL Decoded METAR 2019/07/17 12:35 UTC NOAA

Station name not available
Jul 17, 2019 - 08:35 AM EDT / 2019.07.17 1235 UTC
Wind: Calm:0
Visibility: 2 mile(s):0
Sky conditions: overcast
Weather: mist
Temperature: 76.5 F (24.7 C)
Dew Point: 76.5 F (24.7 C)
Relative Humidity: 100%
Pressure (altimeter): 30.1 in. Hg (1019 hPa)
ob: KOPL 171235Z AUTO 00000KT 2SM BR OVC002 25/25 A3010 RMK AO2 T02470247
cycle: 12

Station Type Date Time Source
KOPL TAF UTC NOAA

Error!

Example: see airport list